createdAt,value
2018-12-16T00:01:37.138Z,23.97
2018-12-16T00:04:07.961Z,21.03
2018-12-16T00:06:38.918Z,21.73
2018-12-16T00:09:08.874Z,21.90
2018-12-16T00:11:39.830Z,21.40
2018-12-16T00:14:08.584Z,25.50
2018-12-16T00:16:37.808Z,22.67
2018-12-16T00:19:07.737Z,22.47
2018-12-16T00:21:37.719Z,21.53
2018-12-16T00:24:06.708Z,23.83
2018-12-16T00:26:47.122Z,21.87
2018-12-16T00:29:16.886Z,22.20
2018-12-16T00:31:46.595Z,23.30
2018-12-16T00:34:15.810Z,21.07
2018-12-16T00:36:44.634Z,22.87
2018-12-16T00:39:13.551Z,19.50
2018-12-16T00:41:43.628Z,22.83
2018-12-16T00:44:12.463Z,20.80
2018-12-16T00:46:41.696Z,24.13
2018-12-16T00:49:10.767Z,19.70
2018-12-16T00:51:41.538Z,23.67
2018-12-16T00:54:10.845Z,20.80
2018-12-16T00:56:40.119Z,21.53
2018-12-16T00:59:09.486Z,21.73
2018-12-16T01:01:38.560Z,25.93
2018-12-16T01:04:07.448Z,23.17
2018-12-16T01:06:36.583Z,22.42
2018-12-16T01:09:07.717Z,19.77
2018-12-16T01:11:38.841Z,21.37
2018-12-16T01:14:07.894Z,21.85
2018-12-16T01:16:36.881Z,22.90
2018-12-16T01:19:05.883Z,23.40
2018-12-16T01:21:34.894Z,20.97
2018-12-16T01:24:03.786Z,20.30
2018-12-16T01:26:32.764Z,20.73
2018-12-16T01:29:01.784Z,17.87
2018-12-16T01:31:30.983Z,21.77
2018-12-16T01:34:00.052Z,21.90
2018-12-16T01:36:29.073Z,23.93
2018-12-16T01:38:57.965Z,21.47
2018-12-16T01:41:27.034Z,22.03
2018-12-16T01:43:56.073Z,21.83
2018-12-16T01:46:24.954Z,22.57
2018-12-16T01:48:54.226Z,23.77
2018-12-16T01:51:23.327Z,19.40
2018-12-16T01:53:52.294Z,24.17
2018-12-16T01:56:22.211Z,21.23
2018-12-16T01:58:56.791Z,24.70
2018-12-16T02:01:29.477Z,24.73
2018-12-16T02:04:02.333Z,20.47
2018-12-16T02:06:31.307Z,24.17
2018-12-16T02:09:00.374Z,23.23
2018-12-16T02:11:29.384Z,21.17
2018-12-16T02:13:58.526Z,22.80
2018-12-16T02:16:46.432Z,21.07
2018-12-16T02:19:15.314Z,24.07
2018-12-16T02:21:44.384Z,20.83
2018-12-16T02:24:13.607Z,22.90
2018-12-16T02:26:42.742Z,22.20
2018-12-16T02:29:11.841Z,24.23
2018-12-16T02:31:40.986Z,24.00
2018-12-16T02:34:09.891Z,24.43
2018-12-16T02:36:39.569Z,20.07
2018-12-16T02:39:08.632Z,21.97
2018-12-16T02:41:40.339Z,22.07
2018-12-16T02:44:09.242Z,19.23
2018-12-16T02:46:38.295Z,20.03
2018-12-16T02:49:07.644Z,18.87
2018-12-16T02:51:37.026Z,22.57
2018-12-16T02:54:06.051Z,23.27
2018-12-16T02:56:35.359Z,22.67
2018-12-16T02:59:05.144Z,19.52
2018-12-16T03:01:34.054Z,21.63
2018-12-16T03:04:03.036Z,21.70
2018-12-16T03:06:32.074Z,24.37
2018-12-16T03:09:01.994Z,23.32
2018-12-16T03:11:32.914Z,22.27
2018-12-16T03:14:01.744Z,23.33
2018-12-16T03:16:30.491Z,23.83
2018-12-16T03:18:59.455Z,21.13
2018-12-16T03:21:29.144Z,22.00
2018-12-16T03:23:58.449Z,20.70
2018-12-16T03:26:27.316Z,20.30
2018-12-16T03:28:56.465Z,22.33
2018-12-16T03:31:25.401Z,20.87
2018-12-16T03:33:54.530Z,23.03
2018-12-16T03:36:23.710Z,20.60
2018-12-16T03:38:52.590Z,26.67
2018-12-16T03:41:21.819Z,20.90
2018-12-16T03:43:51.031Z,24.50
2018-12-16T03:46:19.873Z,20.03
2018-12-16T03:48:48.865Z,21.23
2018-12-16T03:51:17.881Z,22.40
2018-12-16T03:53:46.854Z,21.27
2018-12-16T03:56:15.833Z,20.80
2018-12-16T03:58:57.236Z,22.53
2018-12-16T04:01:26.118Z,23.83
2018-12-16T04:03:55.115Z,25.67
2018-12-16T04:06:24.189Z,22.27
2018-12-16T04:08:53.630Z,22.00
2018-12-16T04:11:22.399Z,22.07
2018-12-16T04:13:51.394Z,22.70
2018-12-16T04:16:22.218Z,21.70
2018-12-16T04:18:51.432Z,25.47
2018-12-16T04:21:20.196Z,23.13
2018-12-16T04:23:50.541Z,23.87
2018-12-16T04:26:19.436Z,21.52
2018-12-16T04:28:48.632Z,24.30
2018-12-16T04:31:17.480Z,25.00
2018-12-16T04:33:46.552Z,19.30
2018-12-16T04:36:15.807Z,23.57
2018-12-16T04:38:44.697Z,24.33
2018-12-16T04:41:13.826Z,20.97
2018-12-16T04:43:43.755Z,25.37
2018-12-16T04:46:12.671Z,23.80
2018-12-16T04:48:41.575Z,23.83
2018-12-16T04:51:10.560Z,25.72
2018-12-16T04:53:39.560Z,28.53
2018-12-16T04:56:08.637Z,27.27
2018-12-16T04:58:37.941Z,26.07
2018-12-16T05:01:07.528Z,29.77
2018-12-16T05:03:36.906Z,28.90
2018-12-16T05:06:05.848Z,29.50
2018-12-16T05:08:34.879Z,26.90
2018-12-16T05:11:03.894Z,26.23
2018-12-16T05:13:32.702Z,28.45
2018-12-16T05:16:01.711Z,27.40
2018-12-16T05:18:30.876Z,25.93
2018-12-16T05:20:59.766Z,28.70
2018-12-16T05:23:28.688Z,28.50
2018-12-16T05:25:57.692Z,30.53
2018-12-16T05:28:26.746Z,28.20
2018-12-16T05:30:55.739Z,28.90
2018-12-16T05:33:24.651Z,29.30
2018-12-16T05:35:53.729Z,31.33
2018-12-16T05:38:22.631Z,31.90
2018-12-16T05:40:51.719Z,31.00
2018-12-16T05:43:20.699Z,29.65
2018-12-16T05:45:49.839Z,34.20
2018-12-16T05:48:18.691Z,30.57
2018-12-16T05:50:47.610Z,34.63
2018-12-16T05:53:16.719Z,29.15
2018-12-16T05:55:45.583Z,32.17
2018-12-16T05:58:14.663Z,32.20
2018-12-16T06:00:43.656Z,32.63
2018-12-16T06:03:12.794Z,33.60
2018-12-16T06:05:41.925Z,30.27
2018-12-16T06:08:10.855Z,31.40
2018-12-16T06:10:39.859Z,32.77
2018-12-16T06:13:08.908Z,33.57
2018-12-16T06:15:37.893Z,31.90
2018-12-16T06:18:06.968Z,31.97
2018-12-16T06:20:36.654Z,33.20
2018-12-16T06:23:05.499Z,33.67
2018-12-16T06:25:34.575Z,33.00
2018-12-16T06:28:03.784Z,31.30
2018-12-16T06:30:35.069Z,35.20
2018-12-16T06:33:04.947Z,31.30
2018-12-16T06:35:35.431Z,28.70
2018-12-16T06:40:40.035Z,28.30
2018-12-16T06:43:09.034Z,32.40
2018-12-16T06:45:38.104Z,29.97
2018-12-16T06:48:07.476Z,31.10
2018-12-16T06:50:36.459Z,31.67
2018-12-16T06:53:05.532Z,29.77
2018-12-16T06:55:34.287Z,28.83
2018-12-16T06:58:03.679Z,27.80
2018-12-16T07:00:32.583Z,32.08
2018-12-16T07:03:01.574Z,30.27
2018-12-16T07:05:30.646Z,33.80
2018-12-16T07:07:59.559Z,30.40
2018-12-16T07:10:28.727Z,35.40
2018-12-16T07:12:57.792Z,28.77
2018-12-16T07:15:27.544Z,33.37
2018-12-16T07:17:56.464Z,31.57
2018-12-16T07:20:25.693Z,34.90
2018-12-16T07:22:54.835Z,32.90
2018-12-16T07:25:23.912Z,30.10
2018-12-16T07:27:52.952Z,32.87
2018-12-16T07:30:22.141Z,30.60
2018-12-16T07:32:51.082Z,33.23
2018-12-16T07:35:20.102Z,34.47
2018-12-16T07:37:49.940Z,34.03
2018-12-16T07:40:18.919Z,36.10
2018-12-16T07:42:48.002Z,30.63
2018-12-16T07:45:16.982Z,31.55
2018-12-16T07:47:46.395Z,33.53
2018-12-16T07:50:15.686Z,37.83
2018-12-16T07:52:45.206Z,34.97
2018-12-16T07:55:14.090Z,35.10
2018-12-16T07:57:43.316Z,36.83
2018-12-16T08:00:13.177Z,33.90
2018-12-16T08:02:42.298Z,30.90
2018-12-16T08:05:11.530Z,35.00
2018-12-16T08:07:40.427Z,33.60
2018-12-16T08:10:10.291Z,33.53
2018-12-16T08:12:39.823Z,30.07
2018-12-16T08:15:09.026Z,31.20
2018-12-16T08:17:38.112Z,37.60
2018-12-16T08:20:08.544Z,35.67
2018-12-16T08:22:37.617Z,36.70
2018-12-16T08:25:06.694Z,33.20
2018-12-16T08:27:36.507Z,33.17
2018-12-16T08:30:07.371Z,36.63
2018-12-16T08:32:36.415Z,35.03
2018-12-16T08:35:05.728Z,32.93
2018-12-16T08:37:34.647Z,37.33
2018-12-16T08:40:03.799Z,34.53
2018-12-16T08:42:33.951Z,35.07
2018-12-16T08:45:04.436Z,34.07
2018-12-16T08:47:33.458Z,32.13
2018-12-16T08:50:02.373Z,33.43
2018-12-16T08:52:31.432Z,36.23
2018-12-16T08:55:00.425Z,33.57
2018-12-16T08:57:29.343Z,36.47
2018-12-16T08:59:58.419Z,34.93
2018-12-16T09:02:27.407Z,33.57
2018-12-16T09:04:56.632Z,35.90
2018-12-16T09:07:25.495Z,35.00
2018-12-16T09:09:54.289Z,37.20
2018-12-16T09:12:23.372Z,36.50
2018-12-16T09:14:52.359Z,37.80
2018-12-16T09:17:21.282Z,38.88
2018-12-16T09:19:50.275Z,35.10
2018-12-16T09:22:19.353Z,36.10
2018-12-16T09:24:48.326Z,38.80
2018-12-16T09:27:17.322Z,36.40
2018-12-16T09:29:46.378Z,34.87
2018-12-16T09:32:15.334Z,38.87
2018-12-16T09:34:44.306Z,34.57
2018-12-16T09:37:13.214Z,37.13
2018-12-16T09:39:42.219Z,34.17
2018-12-16T09:42:11.285Z,38.37
2018-12-16T09:44:40.469Z,36.73
2018-12-16T09:47:09.504Z,36.97
2018-12-16T09:49:38.495Z,38.87
2018-12-16T09:52:07.579Z,39.17
2018-12-16T09:54:36.479Z,34.33
2018-12-16T09:57:05.276Z,38.97
2018-12-16T09:59:34.216Z,34.33
2018-12-16T10:02:03.223Z,33.37
2018-12-16T10:04:32.125Z,35.90
2018-12-16T10:07:01.127Z,35.13
2018-12-16T10:09:30.239Z,38.33
2018-12-16T10:11:59.185Z,34.23
2018-12-16T10:14:28.090Z,35.28
2018-12-16T10:16:57.319Z,37.07
2018-12-16T10:19:26.177Z,35.97
2018-12-16T10:21:55.082Z,36.60
2018-12-16T10:24:24.219Z,38.02
2018-12-16T10:26:53.209Z,39.67
2018-12-16T10:29:22.120Z,38.83
2018-12-16T10:31:51.038Z,38.27
2018-12-16T10:34:20.026Z,39.50
2018-12-16T10:36:49.031Z,37.13
2018-12-16T10:39:18.173Z,37.63
2018-12-16T10:41:47.054Z,41.40
2018-12-16T10:44:16.104Z,41.20
2018-12-16T10:46:45.019Z,42.23
2018-12-16T10:49:14.043Z,40.17
2018-12-16T10:51:43.094Z,43.90
2018-12-16T10:54:12.038Z,41.90
2018-12-16T10:56:41.139Z,38.60
2018-12-16T10:59:10.087Z,43.15
2018-12-16T11:01:39.045Z,43.47
2018-12-16T11:04:08.146Z,43.40
2018-12-16T11:06:37.088Z,40.67
2018-12-16T11:09:06.179Z,38.90
2018-12-16T11:11:37.218Z,39.93
2018-12-16T11:14:06.068Z,38.83
2018-12-16T11:16:34.863Z,35.27
2018-12-16T11:19:04.201Z,42.07
2018-12-16T11:21:33.106Z,44.03
2018-12-16T11:24:03.040Z,42.87
2018-12-16T11:26:32.943Z,46.87
2018-12-16T11:29:01.926Z,54.27
2018-12-16T11:31:30.925Z,52.60
2018-12-16T11:33:59.907Z,45.83
2018-12-16T11:36:28.834Z,43.83
2018-12-16T11:38:58.763Z,46.80
2018-12-16T11:41:27.737Z,46.00
2018-12-16T11:43:57.657Z,47.13
2018-12-16T11:46:26.649Z,46.57
2018-12-16T11:48:55.628Z,47.77
2018-12-16T11:51:24.854Z,45.73
2018-12-16T11:53:54.006Z,46.73
2018-12-16T11:56:23.841Z,44.15
2018-12-16T11:58:52.966Z,50.70
2018-12-16T12:01:21.898Z,48.73
2018-12-16T12:03:50.819Z,47.00
2018-12-16T12:06:19.950Z,47.47
2018-12-16T12:08:48.679Z,49.73
2018-12-16T12:11:17.489Z,51.15
2018-12-16T12:13:46.640Z,52.20
2018-12-16T12:16:15.481Z,51.68
2018-12-16T12:18:44.459Z,60.67
2018-12-16T12:21:13.515Z,50.38
2018-12-16T12:23:42.675Z,51.10
2018-12-16T12:26:11.807Z,47.15
2018-12-16T12:28:40.978Z,57.37
2018-12-16T12:31:09.846Z,54.97
2018-12-16T12:33:38.782Z,55.37
2018-12-16T12:36:07.719Z,55.73
2018-12-16T12:38:37.480Z,59.27
2018-12-16T12:41:06.992Z,53.93
2018-12-16T12:43:35.911Z,54.53
2018-12-16T12:46:05.374Z,50.53
2018-12-16T12:48:34.971Z,54.40
2018-12-16T12:51:05.134Z,53.43
2018-12-16T12:53:34.099Z,58.27
2018-12-16T12:56:03.166Z,54.23
2018-12-16T12:58:32.096Z,55.90
2018-12-16T13:01:01.936Z,72.17
2018-12-16T13:03:32.551Z,65.57
2018-12-16T13:06:01.455Z,65.57
2018-12-16T13:08:40.044Z,68.37
2018-12-16T13:11:08.971Z,56.95
2018-12-16T13:13:38.218Z,67.03
2018-12-16T13:16:07.329Z,66.43
2018-12-16T13:18:37.355Z,69.03
2018-12-16T13:21:06.895Z,64.90
2018-12-16T13:23:35.862Z,74.97
2018-12-16T13:26:05.970Z,86.80
2018-12-16T13:28:34.972Z,78.83
2018-12-16T13:31:04.373Z,66.03
2018-12-16T13:33:33.648Z,62.77
2018-12-16T13:36:02.647Z,66.20
2018-12-16T13:38:32.247Z,76.00
2018-12-16T13:41:01.562Z,74.82
2018-12-16T13:43:30.554Z,63.77
2018-12-16T13:45:59.469Z,68.97
2018-12-16T13:48:29.150Z,99.53
2018-12-16T13:50:58.171Z,72.00
2018-12-16T13:53:27.060Z,84.13
2018-12-16T13:55:56.132Z,87.30
2018-12-16T13:58:26.039Z,76.93
2018-12-16T14:00:55.079Z,85.60
2018-12-16T14:03:24.111Z,99.20
2018-12-16T14:05:53.091Z,84.17
2018-12-16T14:08:21.923Z,94.22
2018-12-16T14:10:51.003Z,106.97
2018-12-16T14:13:20.926Z,91.43
2018-12-16T14:15:52.504Z,90.97
2018-12-16T14:18:20.656Z,84.55
2018-12-16T14:20:49.682Z,78.13
2018-12-16T14:23:18.641Z,88.47
2018-12-16T14:25:48.241Z,89.63
2018-12-16T14:28:18.325Z,93.37
2018-12-16T14:30:47.483Z,97.13
2018-12-16T14:33:17.083Z,109.53
2018-12-16T14:35:45.847Z,99.60
2018-12-16T14:38:32.177Z,107.83
2018-12-16T14:41:01.333Z,102.67
2018-12-16T14:43:33.477Z,96.70
2018-12-16T14:46:02.454Z,103.73
2018-12-16T14:48:31.351Z,91.67
2018-12-16T14:51:00.359Z,86.77
2018-12-16T14:53:29.360Z,84.73
2018-12-16T14:55:58.271Z,123.63
2018-12-16T14:58:27.258Z,88.60
2018-12-16T15:00:56.323Z,82.87
2018-12-16T15:03:25.318Z,101.57
2018-12-16T15:05:54.254Z,115.57
2018-12-16T15:08:24.214Z,106.67
2018-12-16T15:10:53.093Z,109.57
2018-12-16T15:13:22.359Z,99.35
2018-12-16T15:15:52.119Z,98.93
2018-12-16T15:18:21.043Z,125.03
2018-12-16T15:20:50.148Z,88.77
2018-12-16T15:23:19.648Z,81.17
2018-12-16T15:25:48.639Z,100.87
2018-12-16T15:28:17.751Z,91.07
2018-12-16T15:30:46.692Z,87.47
2018-12-16T15:33:15.487Z,111.37
2018-12-16T15:35:44.294Z,111.60
2018-12-16T15:38:13.300Z,98.70
2018-12-16T15:40:42.361Z,86.20
2018-12-16T15:43:11.275Z,74.07
2018-12-16T15:45:40.331Z,77.53
2018-12-16T15:48:09.326Z,104.50
2018-12-16T15:50:38.371Z,76.15
2018-12-16T15:53:07.298Z,74.60
2018-12-16T15:55:36.343Z,116.97
2018-12-16T15:58:06.288Z,143.97
2018-12-16T16:00:35.222Z,92.20
2018-12-16T16:03:05.431Z,87.10
2018-12-16T16:05:35.653Z,92.37
2018-12-16T16:08:06.526Z,83.38
2018-12-16T16:10:35.386Z,114.93
2018-12-16T16:13:05.080Z,84.03
2018-12-16T16:15:34.028Z,75.50
2018-12-16T16:18:03.442Z,98.63
2018-12-16T16:20:33.616Z,71.13
2018-12-16T16:23:02.632Z,97.57
2018-12-16T16:25:31.499Z,96.57
2018-12-16T16:28:00.646Z,95.60
2018-12-16T16:30:29.934Z,101.23
2018-12-16T16:32:58.798Z,105.87
2018-12-16T16:35:27.785Z,108.17
2018-12-16T16:38:00.676Z,112.57
2018-12-16T16:40:28.320Z,98.10
2018-12-16T16:42:57.219Z,111.40
2018-12-16T16:45:26.330Z,99.83
2018-12-16T16:47:55.633Z,88.70
2018-12-16T16:50:24.597Z,140.27
2018-12-16T16:52:53.507Z,130.23
2018-12-16T16:55:22.611Z,125.50
2018-12-16T16:57:51.511Z,103.90
2018-12-16T17:00:20.493Z,91.22
2018-12-16T17:02:49.476Z,113.97
2018-12-16T17:05:18.588Z,93.77
2018-12-16T17:07:47.719Z,114.17
2018-12-16T17:10:16.902Z,85.97
2018-12-16T17:12:45.882Z,80.22
2018-12-16T17:15:14.819Z,104.47
2018-12-16T17:17:43.875Z,115.00
2018-12-16T17:20:12.899Z,105.78
2018-12-16T17:22:41.799Z,108.40
2018-12-16T17:25:10.843Z,108.50
2018-12-16T17:27:40.002Z,88.63
2018-12-16T17:30:10.492Z,80.07
2018-12-16T17:32:39.676Z,66.62
2018-12-16T17:35:08.585Z,93.57
2018-12-16T17:37:37.519Z,98.37
2018-12-16T17:40:06.722Z,92.07
2018-12-16T17:42:48.830Z,92.03
2018-12-16T17:45:17.910Z,83.33
2018-12-16T17:47:48.830Z,68.33
2018-12-16T17:50:21.234Z,79.37
2018-12-16T17:52:50.513Z,60.70
2018-12-16T17:55:20.714Z,63.52
2018-12-16T17:57:49.862Z,97.63
2018-12-16T18:00:19.021Z,69.90
2018-12-16T18:02:48.081Z,75.63
2018-12-16T18:05:17.396Z,65.20
2018-12-16T18:07:46.300Z,86.83
2018-12-16T18:10:15.436Z,72.67
2018-12-16T18:12:44.271Z,82.37
2018-12-16T18:15:13.415Z,97.37
2018-12-16T18:17:42.346Z,73.57
2018-12-16T18:20:11.398Z,73.80
2018-12-16T18:22:40.360Z,67.60
2018-12-16T18:25:09.382Z,91.17
2018-12-16T18:27:38.321Z,92.07
2018-12-16T18:30:09.180Z,80.77
2018-12-16T18:32:46.244Z,71.87
2018-12-16T18:35:15.120Z,73.95
2018-12-16T18:37:44.368Z,82.23
2018-12-16T18:40:14.094Z,74.87
2018-12-16T18:42:42.943Z,107.40
2018-12-16T18:45:12.011Z,82.13
2018-12-16T18:47:40.936Z,84.70
2018-12-16T18:50:10.163Z,106.30
2018-12-16T18:52:39.223Z,101.13
2018-12-16T18:55:08.389Z,74.93
2018-12-16T18:57:37.652Z,92.83
2018-12-16T19:00:09.535Z,118.50
2018-12-16T19:02:57.628Z,82.87
2018-12-16T19:05:26.745Z,73.10
2018-12-16T19:07:55.590Z,89.67
2018-12-16T19:10:24.580Z,71.90
2018-12-16T19:12:53.875Z,72.93
2018-12-16T19:15:22.958Z,66.80
2018-12-16T19:17:51.998Z,72.03
2018-12-16T19:20:20.951Z,54.35
2018-12-16T19:22:49.943Z,58.20
2018-12-16T19:25:18.987Z,61.35
2018-12-16T19:27:47.836Z,72.87
2018-12-16T19:30:16.920Z,50.78
2018-12-16T19:32:45.888Z,108.63
2018-12-16T19:35:15.243Z,81.63
2018-12-16T19:37:45.053Z,58.23
2018-12-16T19:40:14.171Z,46.77
2018-12-16T19:42:43.099Z,80.50
2018-12-16T19:45:12.015Z,69.70
2018-12-16T19:47:40.995Z,60.83
2018-12-16T19:50:10.145Z,50.93
2018-12-16T19:52:40.990Z,55.87
2018-12-16T19:55:09.972Z,70.47
2018-12-16T19:57:38.896Z,50.53
2018-12-16T20:00:08.471Z,88.33
2018-12-16T20:02:37.792Z,72.00
2018-12-16T20:05:09.614Z,58.83
2018-12-16T20:07:39.070Z,54.70
2018-12-16T20:10:08.228Z,67.83
2018-12-16T20:12:37.013Z,68.77
2018-12-16T20:15:06.627Z,61.90
2018-12-16T20:17:36.121Z,82.43
2018-12-16T20:20:06.378Z,75.40
2018-12-16T20:22:35.653Z,70.67
2018-12-16T20:25:04.852Z,83.30
2018-12-16T20:27:33.935Z,77.40
2018-12-16T20:30:03.071Z,73.23
2018-12-16T20:32:32.787Z,79.43
2018-12-16T20:35:01.984Z,63.87
2018-12-16T20:37:30.982Z,71.05
2018-12-16T20:40:00.299Z,70.85
2018-12-16T20:42:29.653Z,75.33
2018-12-16T20:44:59.175Z,85.07
2018-12-16T20:47:28.245Z,70.17
2018-12-16T20:49:58.207Z,65.87
2018-12-16T20:52:28.120Z,64.97
2018-12-16T20:54:57.602Z,66.20
2018-12-16T20:57:27.072Z,78.87
2018-12-16T20:59:56.008Z,69.53
2018-12-16T21:02:25.203Z,61.83
2018-12-16T21:04:54.831Z,43.77
2018-12-16T21:07:23.875Z,57.23
2018-12-16T21:09:52.790Z,52.67
2018-12-16T21:12:27.556Z,52.40
2018-12-16T21:15:01.993Z,56.17
2018-12-16T21:17:38.498Z,52.70
2018-12-16T21:20:08.068Z,55.07
2018-12-16T21:22:37.107Z,51.07
2018-12-16T21:25:06.399Z,58.77
2018-12-16T21:27:35.744Z,60.67
2018-12-16T21:30:06.166Z,58.17
2018-12-16T21:32:36.143Z,68.35
2018-12-16T21:35:06.253Z,49.67
2018-12-16T21:37:36.110Z,54.13
2018-12-16T21:40:05.930Z,55.43
2018-12-16T21:42:35.027Z,62.40
2018-12-16T21:45:04.006Z,56.50
2018-12-16T21:47:33.187Z,77.50
2018-12-16T21:50:02.470Z,60.13
2018-12-16T21:52:32.451Z,68.10
2018-12-16T21:55:01.434Z,47.00
2018-12-16T21:57:33.242Z,53.27
2018-12-16T22:00:04.002Z,65.20
2018-12-16T22:02:35.263Z,53.13
2018-12-16T22:05:04.872Z,60.33
2018-12-16T22:07:33.708Z,57.90
2018-12-16T22:10:02.797Z,57.67
2018-12-16T22:12:31.996Z,64.07
2018-12-16T22:15:01.059Z,54.10
2018-12-16T22:17:30.347Z,58.43
2018-12-16T22:19:59.373Z,59.93
2018-12-16T22:22:28.284Z,52.43
2018-12-16T22:24:57.337Z,68.67
2018-12-16T22:27:26.271Z,59.87
2018-12-16T22:29:55.339Z,41.57
2018-12-16T22:32:24.328Z,50.67
2018-12-16T22:34:53.470Z,48.30
2018-12-16T22:37:22.432Z,58.28
2018-12-16T22:39:51.382Z,48.50
2018-12-16T22:42:20.214Z,55.95
2018-12-16T22:44:49.288Z,53.93
2018-12-16T22:47:18.194Z,67.90
2018-12-16T22:49:47.332Z,49.20
2018-12-16T22:52:16.265Z,49.50
2018-12-16T22:54:45.252Z,56.40
2018-12-16T22:57:14.166Z,51.97
2018-12-16T22:59:43.274Z,70.27
2018-12-16T23:02:12.410Z,54.90
2018-12-16T23:04:41.539Z,56.10
2018-12-16T23:07:10.762Z,59.17
2018-12-16T23:09:40.187Z,62.47
2018-12-16T23:12:09.026Z,59.17
2018-12-16T23:14:38.144Z,54.30
2018-12-16T23:17:07.095Z,58.47
2018-12-16T23:19:36.032Z,68.40
2018-12-16T23:22:05.403Z,83.22
2018-12-16T23:24:34.841Z,73.60
2018-12-16T23:27:03.979Z,84.53
2018-12-16T23:29:33.323Z,74.50
2018-12-16T23:32:02.202Z,71.13
2018-12-16T23:34:31.186Z,65.97
2018-12-16T23:37:00.206Z,66.93
2018-12-16T23:39:29.246Z,80.37
2018-12-16T23:41:58.543Z,76.70
2018-12-16T23:44:27.471Z,78.43
2018-12-16T23:46:56.599Z,80.37
2018-12-16T23:49:25.703Z,68.60
2018-12-16T23:51:54.751Z,77.87
2018-12-16T23:54:23.823Z,89.60
2018-12-16T23:56:53.071Z,81.07
2018-12-16T23:59:22.031Z,91.10
